Time;durP1;ratioP1;P1;durP2;ratioP2;P2;SDS_P1;SDS_P2;PMS_P1;PMS_P2;Temp;Humidity;BMP_temperature;BMP_pressure;BME280_temperature;BME280_humidity;BME280_pressure;Samples;Min_cycle;Max_cycle;Signal;HPM_P1;HPM_P2
2023/10/11 00:01:35;;;;;;;31.82;13.80;;;;;;;8.60;50.54;100955.47;1801814;79;21335;-81
2023/10/11 00:04:48;;;;;;;29.45;15.08;;;;;;;8.52;50.94;100952.14;1763063;81;21389;-82
2023/10/11 00:08:03;;;;;;;27.00;11.97;;;;;;;8.49;51.22;100951.56;1802597;79;21913;-80
2023/10/11 00:11:07;;;;;;;25.35;12.70;;;;;;;8.42;51.57;100960.81;1765317;81;21621;-80
2023/10/11 00:14:14;;;;;;;26.77;12.95;;;;;;;8.59;51.46;100965.52;1801261;79;21323;-80
2023/10/11 00:17:19;;;;;;;27.77;12.88;;;;;;;8.44;51.88;100970.58;1764044;81;21543;-80
2023/10/11 00:20:46;;;;;;;23.32;11.80;;;;;;;8.56;51.84;100979.94;1802303;79;21192;-80
2023/10/11 00:23:36;;;;;;;29.05;12.85;;;;;;;8.67;51.57;100983.38;1762600;81;22558;-80
2023/10/11 00:26:44;;;;;;;26.80;12.70;;;;;;;8.77;51.35;100984.71;1800257;79;21320;-80
2023/10/11 00:29:52;;;;;;;25.37;12.58;;;;;;;8.83;51.20;100988.20;1764870;81;21308;-80
2023/10/11 00:32:59;;;;;;;25.08;12.10;;;;;;;8.85;51.14;100988.92;1802268;79;21304;-80
2023/10/11 00:36:06;;;;;;;22.15;11.60;;;;;;;8.88;51.04;100989.97;1764282;81;21871;-80
2023/10/11 00:39:17;;;;;;;28.92;13.85;;;;;;;9.08;50.66;100999.45;1802558;79;21305;-80
2023/10/11 00:42:21;;;;;;;32.63;15.20;;;;;;;8.96;50.89;100994.19;1763181;81;21971;-80
2023/10/11 00:45:31;;;;;;;28.23;14.78;;;;;;;8.60;51.72;100996.37;1802574;79;21288;-80
2023/10/11 00:48:37;;;;;;;37.65;16.15;;;;;;;8.62;51.72;101000.69;1764439;81;21776;-81
2023/10/11 00:51:47;;;;;;;30.57;15.78;;;;;;;8.56;51.83;101005.38;1802521;79;21299;-80
2023/10/11 00:54:53;;;;;;;29.67;15.10;;;;;;;8.59;51.66;101006.42;1763661;81;21245;-80
2023/10/11 00:57:59;;;;;;;36.38;14.63;;;;;;;8.52;51.85;101011.27;1802494;79;21879;-80
2023/10/11 01:01:08;;;;;;;33.13;15.48;;;;;;;8.51;51.82;101010.37;1764049;81;21327;-81
2023/10/11 01:04:15;;;;;;;;;;;;;;;8.55;51.64;101019.13;1804678;79;21664;-80
2023/10/11 01:07:22;;;;;;;27.77;13.93;;;;;;;8.66;51.33;101024.44;1802510;79;20705;-80
2023/10/11 01:10:29;;;;;;;24.92;14.13;;;;;;;8.68;51.19;101023.78;1803537;79;21816;-81
2023/10/11 01:13:42;;;;;;;33.50;14.78;;;;;;;8.85;50.68;101024.39;1764344;81;21296;-80
2023/10/11 01:16:51;;;;;;;31.30;14.40;;;;;;;8.92;50.36;101029.59;1786664;79;21339;-80
2023/10/11 01:19:59;;;;;;;31.77;14.83;;;;;;;8.66;50.80;101036.72;1763170;81;21847;-80
2023/10/11 01:23:06;;;;;;;28.83;15.13;;;;;;;8.50;51.24;101040.52;1800974;79;21898;-80
2023/10/11 01:26:13;;;;;;;30.97;15.25;;;;;;;8.49;51.26;101052.45;1764439;81;21320;-81
2023/10/11 01:29:20;;;;;;;30.08;15.72;;;;;;;8.42;51.30;101050.30;1806531;79;21354;-80
2023/10/11 01:32:28;;;;;;;25.85;13.38;;;;;;;8.43;51.18;101056.11;1772655;81;21866;-80
2023/10/11 01:35:36;;;;;;;34.80;16.87;;;;;;;8.39;51.25;101066.94;1771445;81;21331;-80
2023/10/11 01:38:46;;;;;;;28.87;15.30;;;;;;;8.30;51.47;101071.85;1740152;82;21890;-80
2023/10/11 01:41:55;;;;;;;31.87;15.38;;;;;;;8.18;51.66;101080.66;1735670;81;21367;-80
2023/10/11 01:45:00;;;;;;;28.80;15.45;;;;;;;8.17;51.78;101083.53;1744845;82;21355;-80
2023/10/11 01:48:07;;;;;;;27.45;13.85;;;;;;;8.19;51.59;101083.77;1745355;82;21315;-80
2023/10/11 01:51:23;;;;;;;26.65;14.20;;;;;;;8.29;51.32;101089.22;1775801;81;21339;-80
2023/10/11 01:54:22;;;;;;;30.92;14.40;;;;;;;8.39;51.06;101091.47;1775739;81;21299;-79
2023/10/11 01:57:34;;;;;;;29.18;14.23;;;;;;;8.41;51.00;101100.36;1775413;81;21992;-80
2023/10/11 02:00:41;;;;;;;36.95;16.40;;;;;;;8.24;51.42;101095.60;1774352;81;21894;-80
2023/10/11 02:03:51;;;;;;;33.20;15.40;;;;;;;8.30;51.37;101100.98;1775880;81;21643;-80
2023/10/11 02:06:54;;;;;;;43.75;17.73;;;;;;;8.15;51.59;101105.98;1774349;81;21852;-79
2023/10/11 02:10:00;;;;;;;34.60;15.38;;;;;;;8.16;51.67;101110.43;1774178;81;21311;-79
2023/10/11 02:13:09;;;;;;;38.92;16.37;;;;;;;8.37;51.15;101119.36;1775115;81;21652;-80
2023/10/11 02:16:15;;;;;;;29.98;15.72;;;;;;;8.29;51.17;101115.11;1771442;81;21319;-80
2023/10/11 02:19:23;;;;;;;40.67;18.95;;;;;;;8.39;50.95;101117.38;1740488;82;21307;-80
2023/10/11 02:22:30;;;;;;;39.42;17.48;;;;;;;8.34;50.98;101118.77;1735834;82;21359;-80
2023/10/11 02:25:36;;;;;;;45.10;18.57;;;;;;;8.28;51.00;101128.39;1744807;82;21910;-78
2023/10/11 02:28:42;;;;;;;40.08;18.65;;;;;;;8.22;50.97;101127.56;1744455;82;21342;-79
2023/10/11 02:31:50;;;;;;;35.65;17.92;;;;;;;8.06;51.31;101136.80;1744168;82;21861;-81
2023/10/11 02:34:55;;;;;;;38.23;18.37;;;;;;;8.12;51.09;101139.81;1744159;82;21320;-82
2023/10/11 02:38:02;;;;;;;39.83;17.90;;;;;;;8.31;50.66;101150.39;1745598;82;21305;-80
2023/10/11 02:41:08;;;;;;;36.90;17.60;;;;;;;8.55;50.02;101150.02;1745392;82;21331;-80
2023/10/11 02:44:14;;;;;;;37.55;14.68;;;;;;;8.44;50.10;101154.61;1744534;82;21347;-80
2023/10/11 02:47:22;;;;;;;34.83;17.40;;;;;;;8.47;50.05;101163.49;1721076;82;21861;-80
2023/10/11 02:50:28;;;;;;;38.63;18.42;;;;;;;8.44;50.00;101169.61;1715820;83;21311;-80
2023/10/11 02:53:36;;;;;;;41.60;18.42;;;;;;;8.42;49.98;101178.91;1715737;83;21311;-80
2023/10/11 02:56:52;;;;;;;52.17;20.50;;;;;;;8.43;49.90;101180.16;1689995;85;21326;-80
2023/10/11 02:59:56;;;;;;;38.08;17.42;;;;;;;8.31;50.07;101179.87;1672378;85;21381;-80
2023/10/11 03:03:10;;;;;;;41.10;16.82;;;;;;;8.13;50.40;101177.46;1673544;85;21348;-80
2023/10/11 03:06:10;;;;;;;29.70;16.23;;;;;;;8.12;50.46;101186.64;1690545;85;21342;-80
2023/10/11 03:09:18;;;;;;;34.13;16.37;;;;;;;8.16;50.41;101199.00;1691135;85;21324;-80
2023/10/11 03:12:38;;;;;;;33.05;17.00;;;;;;;8.24;50.13;101200.53;1691143;85;21336;-79
2023/10/11 03:15:38;;;;;;;37.75;16.30;;;;;;;8.23;50.19;101200.65;1673536;85;21334;-79
2023/10/11 03:18:46;;;;;;;39.63;15.48;;;;;;;8.18;50.26;101201.92;1691187;85;21327;-82
2023/10/11 03:22:02;;;;;;;33.95;14.95;;;;;;;8.28;50.12;101201.98;1673685;85;21328;-80
2023/10/11 03:25:12;;;;;;;37.48;15.83;;;;;;;8.37;49.91;101203.87;1673677;85;21988;-80
2023/10/11 03:28:13;;;;;;;42.53;17.02;;;;;;;8.28;49.95;101214.25;1674524;85;21304;-80
2023/10/11 03:31:16;;;;;;;34.25;16.27;;;;;;;8.25;49.87;101217.23;1690844;83;21351;-80
2023/10/11 03:34:23;;;;;;;30.35;14.90;;;;;;;8.22;49.71;101222.09;1732735;82;21303;-80
2023/10/11 03:37:30;;;;;;;28.42;12.28;;;;;;;8.11;49.71;101233.48;1769772;81;21303;-80
2023/10/11 03:40:54;;;;;;;27.62;14.30;;;;;;;8.22;49.40;101237.09;1771085;81;21291;-80
2023/10/11 03:43:45;;;;;;;27.40;13.13;;;;;;;8.16;49.38;101244.82;1771032;81;21307;-80
2023/10/11 03:46:54;;;;;;;26.70;11.20;;;;;;;8.10;49.35;101249.97;1770367;81;21374;-80
2023/10/11 03:50:00;;;;;;;30.00;12.28;;;;;;;8.18;49.09;101250.98;1771465;81;21314;-80
2023/10/11 03:53:13;;;;;;;27.05;11.83;;;;;;;8.09;49.22;101260.48;1770917;81;21282;-80
2023/10/11 03:56:10;;;;;;;17.82;9.33;;;;;;;8.04;49.28;101266.34;1771017;81;21306;-80
2023/10/11 03:59:06;;;;;;;21.17;11.75;;;;;;;7.98;49.38;101275.58;1770804;81;21325;-79
2023/10/11 04:02:13;;;;;;;24.43;10.75;;;;;;;8.00;49.21;101285.83;1770617;80;21223;-80
2023/10/11 04:05:20;;;;;;;24.30;11.55;;;;;;;7.98;49.34;101290.56;1770878;81;21287;-80
2023/10/11 04:08:27;;;;;;;25.90;12.18;;;;;;;7.84;49.68;101294.00;1770926;81;21611;-79
2023/10/11 04:11:37;;;;;;;22.65;11.33;;;;;;;7.76;49.96;101292.94;1770966;81;21283;-80
2023/10/11 04:14:45;;;;;;;23.22;10.93;;;;;;;7.90;49.68;101296.20;1770647;81;21320;-80
2023/10/11 04:17:55;;;;;;;30.23;13.68;;;;;;;7.99;49.45;101296.37;1770854;81;21338;-80
2023/10/11 04:24:23;;;;;;;26.23;13.10;;;;;;;7.51;50.75;101296.44;1770966;81;21313;-80
2023/10/11 04:30:43;;;;;;;36.05;14.98;;;;;;;7.63;50.83;101310.36;1769553;81;21330;-80
2023/10/11 04:33:51;;;;;;;24.75;13.08;;;;;;;7.67;50.87;101316.42;1771093;81;21295;-80
2023/10/11 04:36:55;;;;;;;315.10;64.45;;;;;;;7.74;50.86;101320.31;1770847;81;21620;-80
2023/10/11 04:43:25;;;;;;;92.15;32.00;;;;;;;7.91;50.86;101326.53;1727428;81;21311;-80
2023/10/11 04:46:32;;;;;;;89.35;31.40;;;;;;;7.94;50.98;101324.87;1769856;81;21339;-80
2023/10/11 04:49:38;;;;;;;54.80;24.40;;;;;;;8.06;51.01;101339.80;1754795;81;21288;-80
2023/10/11 04:52:48;;;;;;;27.70;16.42;;;;;;;8.26;50.73;101345.70;1771044;81;21923;-80
2023/10/11 04:55:59;;;;;;;34.50;16.10;;;;;;;8.33;50.57;101352.35;1802279;79;21339;-80
2023/10/11 05:02:33;;;;;;;37.40;17.82;;;;;;;8.66;50.12;101365.36;1800956;79;21319;-81
2023/10/11 05:05:58;;;;;;;39.75;17.67;;;;;;;8.83;49.97;101369.27;1802354;79;21615;-81
2023/10/11 05:08:51;;;;;;;70.03;26.30;;;;;;;8.92;49.97;101372.53;1790107;79;21336;-80
2023/10/11 05:15:15;;;;;;;63.78;22.95;;;;;;;9.26;49.67;101381.20;1742231;81;21874;-80
2023/10/11 05:18:24;;;;;;;52.00;22.48;;;;;;;9.48;49.29;101383.67;1732168;82;21974;-80
2023/10/11 05:21:38;;;;;;;52.23;22.58;;;;;;;9.65;49.17;101387.57;1705957;82;21356;-80
2023/10/11 05:34:49;;;;;;;32.95;13.65;;;;;;;10.18;48.88;101397.13;1757233;81;21390;-81
2023/10/11 05:51:28;;;;;;;23.67;11.15;;;;;;;10.70;48.41;101411.25;1784435;79;21630;-81
2023/10/11 05:54:34;;;;;;;19.20;10.60;;;;;;;10.74;48.32;101424.99;1772914;79;21303;-81
2023/10/11 05:57:39;;;;;;;16.95;9.18;;;;;;;10.77;48.44;101430.14;1772381;79;21299;-81
2023/10/11 06:00:49;;;;;;;25.10;10.95;;;;;;;10.76;48.60;101435.27;1775971;79;21335;-82
2023/10/11 06:03:55;;;;;;;17.67;9.80;;;;;;;10.91;48.37;101428.79;1776937;79;21309;-81
2023/10/11 06:07:03;;;;;;;20.95;10.15;;;;;;;11.03;48.39;101430.33;1739383;80;21854;-80
2023/10/11 06:10:08;;;;;;;19.73;10.00;;;;;;;11.19;48.15;101438.72;1777753;79;21308;-81
2023/10/11 06:13:19;;;;;;;17.57;8.83;;;;;;;11.38;48.00;101439.11;1736851;80;21295;-82
2023/10/11 06:16:24;;;;;;;10.98;7.20;;;;;;;11.52;47.88;101444.06;1777543;79;21991;-81
2023/10/11 06:19:28;;;;;;;15.48;8.05;;;;;;;11.62;47.67;101454.09;1774759;79;21302;-81
2023/10/11 06:22:35;;;;;;;11.90;7.03;;;;;;;11.68;47.39;101457.09;1735467;80;21303;-81
2023/10/11 06:25:50;;;;;;;9.88;6.15;;;;;;;11.79;46.98;101471.06;1775431;79;21856;-80
2023/10/11 06:29:03;;;;;;;9.45;5.87;;;;;;;11.92;46.44;101470.72;1773880;79;21276;-80
2023/10/11 06:32:10;;;;;;;11.28;6.58;;;;;;;11.87;45.43;101474.44;1775707;79;21296;-80
2023/10/11 06:35:23;;;;;;;15.80;6.20;;;;;;;11.98;45.32;101483.28;1738544;80;22486;-81
2023/10/11 06:38:23;;;;;;;8.08;4.72;;;;;;;12.17;45.09;101494.59;1770158;80;21959;-80
2023/10/11 06:41:50;;;;;;;12.73;6.10;;;;;;;12.25;43.60;101493.30;1770294;79;21276;-80
2023/10/11 06:44:49;;;;;;;7.85;4.95;;;;;;;12.33;43.16;101494.37;1766751;80;21355;-80
2023/10/11 06:47:56;;;;;;;8.63;4.95;;;;;;;12.42;43.28;101498.91;1770554;80;21289;-81
2023/10/11 06:51:03;;;;;;;7.58;4.47;;;;;;;12.48;42.56;101495.03;1731698;81;21339;-81
2023/10/11 06:54:15;;;;;;;7.97;3.70;;;;;;;12.45;41.82;101495.34;1731296;81;21330;-79
2023/10/11 06:57:25;;;;;;;5.50;3.00;;;;;;;12.58;40.52;101496.30;1703157;83;21303;-82
2023/10/11 07:00:37;;;;;;;9.38;3.83;;;;;;;12.52;38.79;101496.44;1729908;81;21371;-82
2023/10/11 07:03:42;;;;;;;8.57;3.87;;;;;;;12.55;38.59;101492.49;1728124;81;21303;-82
2023/10/11 07:06:54;;;;;;;8.68;3.35;;;;;;;12.72;37.88;101496.22;1727384;81;21187;-82
2023/10/11 07:13:30;;;;;;;5.80;3.75;;;;;;;12.78;37.42;101495.56;1658497;83;21309;-81
2023/10/11 07:16:37;;;;;;;4.37;3.05;;;;;;;12.83;37.61;101505.55;1730054;81;21320;-81
2023/10/11 07:19:50;;;;;;;10.35;3.15;;;;;;;12.90;36.87;101501.14;1731994;81;21334;-81
2023/10/11 07:22:58;;;;;;;7.47;3.45;;;;;;;12.90;36.74;101502.52;1732376;81;21238;-83
2023/10/11 07:29:35;;;;;;;5.65;2.72;;;;;;;13.17;37.13;101501.44;1730485;81;21263;-81
2023/10/11 07:32:44;;;;;;;5.00;3.10;;;;;;;13.14;36.16;101500.93;1681285;83;22333;-80
2023/10/11 07:35:52;;;;;;;4.87;3.00;;;;;;;13.08;36.47;101504.31;1727270;81;21310;-81
2023/10/11 07:39:14;;;;;;;3.87;2.55;;;;;;;13.35;36.37;101504.65;1714905;82;21386;-81
2023/10/11 07:42:18;;;;;;;7.62;2.45;;;;;;;13.43;36.22;101510.19;1775659;79;21316;-81
2023/10/11 07:45:19;;;;;;;5.45;3.20;;;;;;;13.63;36.14;101506.64;1775223;79;21296;-80
2023/10/11 07:48:29;;;;;;;4.90;2.58;;;;;;;13.72;36.74;101515.26;1769379;79;21312;-81
2023/10/11 07:51:33;;;;;;;6.95;2.77;;;;;;;13.69;35.51;101511.46;1773246;79;21323;-80
2023/10/11 07:54:43;;;;;;;5.05;2.83;;;;;;;13.67;35.63;101514.91;1782951;79;21320;-80
2023/10/11 07:57:48;;;;;;;3.95;2.40;;;;;;;13.70;35.35;101512.69;1775259;79;21278;-81
2023/10/11 08:01:02;;;;;;;3.15;2.08;;;;;;;13.71;35.13;101525.41;1739750;80;21906;-81
2023/10/11 08:04:28;;;;;;;;;;;;;;;;;;;;;
2023/10/11 08:07:22;;;;;;;4.17;2.12;;;;;;;14.13;34.14;101525.84;1778741;79;21278;-83
2023/10/11 08:10:34;;;;;;;4.33;2.25;;;;;;;13.93;34.17;101529.94;1737038;80;21209;-81
2023/10/11 08:13:43;;;;;;;4.15;2.37;;;;;;;13.91;33.74;101538.34;1773330;79;21301;-81
2023/10/11 08:16:49;;;;;;;3.08;1.80;;;;;;;13.92;33.68;101540.56;1781448;79;21299;-81
2023/10/11 08:19:58;;;;;;;2.02;1.57;;;;;;;13.99;33.69;101536.98;1776995;79;22474;-82
2023/10/11 08:23:08;;;;;;;4.05;2.20;;;;;;;13.97;32.97;101532.67;1737221;80;21327;-82
2023/10/11 08:26:14;;;;;;;1.85;1.65;;;;;;;14.02;32.74;101531.16;1777159;79;21972;-81
2023/10/11 08:29:28;;;;;;;4.80;1.95;;;;;;;14.05;32.74;101541.80;1740599;80;21320;-81
2023/10/11 08:32:42;;;;;;;2.77;2.02;;;;;;;14.12;32.94;101542.52;1773934;79;21288;-84
2023/10/11 08:35:48;;;;;;;5.87;2.12;;;;;;;14.13;32.64;101544.23;1780246;79;21371;-82
2023/10/11 08:38:53;;;;;;;3.37;2.10;;;;;;;14.19;32.64;101548.53;1727591;81;21307;-82
2023/10/11 08:41:58;;;;;;;2.77;1.82;;;;;;;14.11;32.81;101551.27;1718071;82;21210;-82
2023/10/11 08:44:51;;;;;;;3.35;2.10;;;;;;;14.08;32.69;101557.12;1750503;80;21307;-83
2023/10/11 08:47:59;;;;;;;5.12;1.80;;;;;;;14.01;33.15;101550.56;1746925;80;21335;-82
2023/10/11 08:51:11;;;;;;;3.80;1.82;;;;;;;14.17;32.83;101556.63;1721433;80;28562;-83
2023/10/11 08:54:12;;;;;;;4.78;2.33;;;;;;;14.20;32.25;101558.50;1700712;83;21317;-82
2023/10/11 08:57:18;;;;;;;4.97;2.20;;;;;;;14.26;32.36;101557.84;1705176;83;21341;-83
2023/10/11 09:00:31;;;;;;;4.95;1.95;;;;;;;14.47;31.84;101560.61;1701282;83;21310;-82
2023/10/11 09:03:40;;;;;;;4.87;2.20;;;;;;;14.38;32.37;101551.99;1702199;83;22367;-80
2023/10/11 09:06:55;;;;;;;3.00;1.95;;;;;;;14.29;32.55;101552.50;1698718;83;21210;-81
2023/10/11 09:10:00;;;;;;;2.22;1.30;;;;;;;14.46;31.84;101556.14;1698409;83;22385;-82
2023/10/11 09:13:09;;;;;;;3.15;1.55;;;;;;;14.46;30.73;101558.89;1695698;83;21987;-82
2023/10/11 09:16:14;;;;;;;1.90;1.47;;;;;;;14.48;30.06;101556.84;1708800;82;21969;-82
2023/10/11 09:19:23;;;;;;;2.95;1.60;;;;;;;14.30;30.43;101552.84;1693780;83;21334;-82
2023/10/11 09:22:30;;;;;;;6.50;1.62;;;;;;;14.26;30.70;101554.23;1692500;84;21317;-82
2023/10/11 09:25:36;;;;;;;3.15;1.70;;;;;;;14.32;30.47;101546.66;1693549;83;21325;-82
2023/10/11 09:28:42;;;;;;;2.47;1.60;;;;;;;14.18;30.57;101552.33;1692615;83;22272;-82
2023/10/11 09:31:58;;;;;;;2.62;1.75;;;;;;;14.01;30.81;101547.30;1700033;83;21373;-82
2023/10/11 09:35:04;;;;;;;3.95;2.50;;;;;;;14.11;31.36;101538.88;1692210;83;21382;-83
2023/10/11 09:38:10;;;;;;;4.05;1.87;;;;;;;14.28;31.21;101535.65;1690358;83;21334;-81
2023/10/11 09:41:17;;;;;;;5.10;2.00;;;;;;;14.41;30.90;101533.25;1684123;84;21346;-83
2023/10/11 09:44:28;;;;;;;6.42;2.08;;;;;;;14.72;30.16;101527.06;1698143;83;21322;-82
2023/10/11 09:47:34;;;;;;;6.10;2.17;;;;;;;14.72;30.11;101526.54;1669363;84;21325;-83
2023/10/11 09:50:41;;;;;;;3.98;1.75;;;;;;;14.74;30.13;101525.01;1687615;83;22052;-82
2023/10/11 09:53:53;;;;;;;4.42;2.47;;;;;;;14.77;30.51;101515.00;1691695;83;21311;-83
2023/10/11 09:57:18;;;;;;;3.58;2.00;;;;;;;14.76;30.21;101511.91;1694475;84;21294;-81
2023/10/11 10:00:50;;;;;;;7.60;2.20;;;;;;;14.85;30.03;101501.74;1697719;83;21354;-84
2023/10/11 10:04:05;;;;;;;3.65;2.00;;;;;;;14.93;30.07;101508.09;1691835;84;21337;-83
2023/10/11 10:11:02;;;;;;;2.95;1.55;;;;;;;15.11;30.19;101498.77;1695852;83;21369;-83
2023/10/11 10:14:30;;;;;;;2.75;1.82;;;;;;;14.97;30.52;101500.34;1693948;83;21330;-83
2023/10/11 10:17:42;;;;;;;4.55;2.33;;;;;;;15.05;30.27;101501.16;1660311;84;21359;-82
2023/10/11 10:20:49;;;;;;;4.22;2.20;;;;;;;15.05;29.80;101499.78;1694121;83;22471;-83
2023/10/11 10:23:54;;;;;;;3.72;2.10;;;;;;;15.07;29.66;101493.59;1692590;83;21901;-83
2023/10/11 10:27:00;;;;;;;4.45;1.92;;;;;;;15.22;29.42;101494.23;1693030;84;21310;-83
2023/10/11 10:30:06;;;;;;;5.03;1.95;;;;;;;15.44;28.39;101480.19;1694546;83;21291;-84
2023/10/11 10:33:28;;;;;;;5.42;1.75;;;;;;;15.22;28.73;101486.82;1708556;82;21333;-82
2023/10/11 10:36:40;;;;;;;3.85;1.77;;;;;;;15.31;28.85;101483.52;1678940;83;21327;-82
2023/10/11 10:39:51;;;;;;;3.35;1.70;;;;;;;15.53;29.22;101488.24;1703910;82;21334;-83
2023/10/11 10:43:23;;;;;;;;;;;;;;;15.64;28.87;101492.52;1713820;82;21291;-83
2023/10/11 10:46:28;;;;;;;3.50;1.85;;;;;;;15.60;28.91;101494.73;1697447;83;20253;-83
2023/10/11 10:49:51;;;;;;;5.47;1.87;;;;;;;15.57;28.60;101502.50;1705863;83;21333;-83
2023/10/11 10:52:59;;;;;;;2.67;1.90;;;;;;;15.47;29.07;101499.11;1710481;83;21944;-83
2023/10/11 10:56:06;;;;;;;3.85;1.57;;;;;;;15.56;28.67;101503.55;1688803;83;21314;-83
2023/10/11 10:59:20;;;;;;;3.10;1.75;;;;;;;15.49;28.64;101496.53;1712037;83;21326;-84
2023/10/11 11:02:24;;;;;;;3.05;1.70;;;;;;;15.41;28.73;101496.56;1728680;82;21318;-86
2023/10/11 11:05:39;;;;;;;4.35;1.80;;;;;;;15.53;29.55;101500.66;1697851;83;21321;-84
2023/10/11 11:08:39;;;;;;;4.10;1.87;;;;;;;15.56;29.80;101501.65;1685029;83;21331;-84
2023/10/11 11:11:46;;;;;;;4.20;1.70;;;;;;;15.68;29.36;101500.77;1712260;82;21346;-83
2023/10/11 11:15:00;;;;;;;2.65;2.00;;;;;;;15.70;28.77;101492.30;1715488;82;21283;-83
2023/10/11 11:18:11;;;;;;;3.72;2.30;;;;;;;15.78;28.58;101500.55;1712406;82;21310;-83
2023/10/11 11:21:33;;;;;;;2.65;1.62;;;;;;;15.91;28.85;101496.67;1719885;82;21336;-83
2023/10/11 11:24:44;;;;;;;3.47;1.67;;;;;;;15.97;28.84;101501.45;1675351;83;21980;-83
2023/10/11 11:27:54;;;;;;;2.20;1.60;;;;;;;16.06;28.51;101496.73;1682428;85;21314;-82
2023/10/11 11:31:30;;;;;;;3.87;1.87;;;;;;;16.19;28.66;101498.89;1699713;83;21185;-83
2023/10/11 11:34:27;;;;;;;2.25;1.75;;;;;;;16.06;28.60;101496.21;1712394;82;21340;-82
2023/10/11 11:37:35;;;;;;;;;;;;;;;15.89;29.32;101503.40;1716085;82;21336;-83
2023/10/11 11:40:47;;;;;;;3.42;1.57;;;;;;;15.79;28.95;101498.12;1718679;82;20780;-83
2023/10/11 11:43:48;;;;;;;3.77;2.02;;;;;;;15.76;28.48;101495.70;1706187;84;21306;-83
2023/10/11 11:47:04;;;;;;;2.50;1.72;;;;;;;15.75;28.40;101502.27;1699936;82;21839;-83
2023/10/11 11:50:18;;;;;;;2.58;1.60;;;;;;;15.74;28.23;101496.42;1686926;84;21332;-82
2023/10/11 11:53:13;;;;;;;1.82;1.47;;;;;;;15.75;28.61;101492.62;1678378;85;21356;-83
2023/10/11 11:56:22;;;;;;;2.10;1.22;;;;;;;15.72;27.87;101493.86;1679892;85;21349;-83
2023/10/11 11:59:34;;;;;;;3.17;1.85;;;;;;;15.69;26.71;101500.25;1700573;84;21987;-83
2023/10/11 12:02:40;;;;;;;3.62;1.92;;;;;;;15.64;26.49;101498.03;1707914;84;21349;-83
2023/10/11 12:05:47;;;;;;;2.00;1.35;;;;;;;15.67;26.91;101494.06;1711764;82;22489;-83
2023/10/11 12:08:56;;;;;;;5.78;1.42;;;;;;;15.67;26.93;101496.83;1712667;82;21368;-83
2023/10/11 12:12:04;;;;;;;3.27;1.55;;;;;;;15.59;26.71;101498.55;1713195;82;21310;-81
2023/10/11 12:15:16;;;;;;;2.10;1.40;;;;;;;15.51;26.63;101493.06;1716390;82;21309;-82
2023/10/11 12:18:19;;;;;;;3.05;1.15;;;;;;;15.71;27.32;101484.36;1709065;82;21293;-82
2023/10/11 12:21:25;;;;;;;3.22;1.17;;;;;;;15.68;26.15;101493.88;1703102;82;21270;-82
2023/10/11 12:24:35;;;;;;;2.58;1.37;;;;;;;15.54;24.99;101490.48;1678800;85;21311;-82
2023/10/11 12:27:42;;;;;;;3.92;1.32;;;;;;;15.55;25.90;101493.56;1703916;84;21222;-82
2023/10/11 12:30:48;;;;;;;2.50;1.65;;;;;;;15.60;26.62;101484.23;1703264;84;21889;-82
2023/10/11 12:33:54;;;;;;;2.98;1.40;;;;;;;15.73;27.40;101485.06;1683798;83;22148;-82
2023/10/11 12:37:02;;;;;;;5.05;1.60;;;;;;;15.76;27.03;101484.67;1698630;82;21873;-82
2023/10/11 12:40:22;;;;;;;3.12;1.70;;;;;;;15.82;26.68;101483.45;1706759;84;21318;-82
2023/10/11 12:43:22;;;;;;;4.67;1.25;;;;;;;15.80;25.79;101478.61;1653982;85;21294;-82
2023/10/11 12:46:29;;;;;;;3.05;1.52;;;;;;;15.82;25.58;101479.83;1674225;85;21900;-81
2023/10/11 12:49:35;;;;;;;3.05;1.22;;;;;;;15.77;25.38;101474.01;1689876;85;22557;-82
2023/10/11 12:52:40;;;;;;;1.72;1.20;;;;;;;15.83;25.13;101471.89;1688270;85;22355;-82
2023/10/11 12:55:50;;;;;;;2.70;1.70;;;;;;;15.66;24.83;101464.22;1688834;85;21362;-83
2023/10/11 12:58:57;;;;;;;2.02;1.30;;;;;;;15.57;25.31;101461.14;1689678;85;21918;-82
2023/10/11 13:02:04;;;;;;;2.77;1.80;;;;;;;15.63;25.91;101460.44;1679131;85;21396;-81
2023/10/11 13:05:10;;;;;;;6.67;1.82;;;;;;;15.54;25.65;101456.86;1688272;85;21346;-82
2023/10/11 13:08:16;;;;;;;4.78;1.57;;;;;;;15.49;25.70;101458.45;1689019;85;21333;-82
2023/10/11 13:11:22;;;;;;;3.12;1.50;;;;;;;15.42;25.57;101451.41;1688903;85;21361;-82
2023/10/11 13:14:28;;;;;;;3.65;1.65;;;;;;;15.34;25.38;101452.33;1689905;85;21409;-82
2023/10/11 13:17:28;;;;;;;2.85;1.57;;;;;;;15.27;25.00;101444.94;1667320;85;21201;-83
2023/10/11 13:20:31;;;;;;;2.80;1.65;;;;;;;15.28;24.62;101448.89;1690003;85;21331;-82
2023/10/11 13:23:08;;;;;;;3.50;2.05;;;;;;;15.22;24.68;101451.52;1689665;85;21330;-82
2023/10/11 13:26:18;;;;;;;5.67;1.92;;;;;;;15.22;24.89;101441.87;1688692;85;21954;-82
2023/10/11 13:29:21;;;;;;;3.35;1.75;;;;;;;15.20;24.85;101437.06;1693258;83;21311;-82
2023/10/11 13:32:28;;;;;;;5.90;2.08;;;;;;;15.29;24.75;101435.47;1723561;82;21291;-82
2023/10/11 13:35:36;;;;;;;2.35;1.62;;;;;;;15.32;24.91;101435.09;1723675;83;21318;-82
2023/10/11 13:38:45;;;;;;;2.37;1.70;;;;;;;15.21;25.24;101437.41;1724767;83;21343;-82
2023/10/11 13:41:52;;;;;;;3.20;1.85;;;;;;;15.16;25.54;101441.22;1724863;83;21317;-82
2023/10/11 13:44:59;;;;;;;7.22;1.82;;;;;;;15.21;25.46;101434.13;1716096;82;21342;-82
2023/10/11 13:48:11;;;;;;;3.47;1.57;;;;;;;15.22;25.39;101441.34;1695972;84;21378;-81
2023/10/11 13:51:19;;;;;;;2.83;1.67;;;;;;;15.20;25.39;101434.31;1713340;83;21343;-82
2023/10/11 13:55:08;;;;;;;11.38;1.90;;;;;;;15.07;25.36;101436.25;1694656;84;21381;-83
2023/10/11 13:57:43;;;;;;;3.05;1.75;;;;;;;15.03;25.68;101428.86;1710747;83;21307;-82
2023/10/11 14:04:05;;;;;;;3.37;1.62;;;;;;;15.02;25.47;101432.66;1664685;86;21374;-82
2023/10/11 14:07:22;;;;;;;4.87;2.00;;;;;;;15.10;25.51;101440.00;1664700;86;21323;-82
2023/10/11 14:10:26;;;;;;;3.22;2.20;;;;;;;14.97;25.54;101443.35;1664186;86;21366;-82
2023/10/11 14:13:27;;;;;;;2.85;2.10;;;;;;;14.96;25.46;101433.37;1663778;86;21351;-82
2023/10/11 14:16:32;;;;;;;3.60;1.98;;;;;;;14.81;25.61;101432.38;1663498;86;21354;-81
2023/10/11 14:19:38;;;;;;;3.22;1.98;;;;;;;14.71;25.66;101436.70;1664947;86;21327;-81
2023/10/11 14:22:44;;;;;;;3.92;2.30;;;;;;;14.61;25.81;101437.94;1665001;86;21319;-82
2023/10/11 14:25:52;;;;;;;3.67;2.45;;;;;;;14.54;25.99;101435.90;1664229;86;21350;-81
2023/10/11 14:28:59;;;;;;;3.83;2.55;;;;;;;14.59;26.17;101434.52;1663788;86;21351;-82
2023/10/11 14:32:05;;;;;;;10.18;3.08;;;;;;;14.57;26.32;101437.42;1663912;86;21339;-82
2023/10/11 14:35:08;;;;;;;3.80;2.58;;;;;;;14.45;26.75;101441.04;1664878;86;21204;-81
2023/10/11 14:38:14;;;;;;;5.50;2.75;;;;;;;14.37;27.00;101439.67;1663492;86;21314;-80
2023/10/11 14:41:25;;;;;;;5.20;2.50;;;;;;;14.30;27.32;101437.25;1663576;86;21327;-82
2023/10/11 14:44:29;;;;;;;9.28;3.55;;;;;;;14.12;27.60;101435.22;1669781;82;21359;-82
2023/10/11 14:51:39;;;;;;;5.15;2.98;;;;;;;14.01;28.10;101446.03;1707746;82;21892;-81
2023/10/11 14:54:45;;;;;;;6.35;3.45;;;;;;;13.91;28.06;101450.84;1709689;84;21344;-82
2023/10/11 14:57:58;;;;;;;7.90;3.10;;;;;;;13.90;27.98;101450.50;1709745;84;21312;-81
2023/10/11 15:01:04;;;;;;;9.15;3.47;;;;;;;13.79;28.00;101453.94;1699620;84;21345;-81
2023/10/11 15:04:12;;;;;;;10.75;4.62;;;;;;;13.69;28.12;101461.97;1697533;84;21409;-81
2023/10/11 15:07:18;;;;;;;11.57;5.53;;;;;;;13.55;28.29;101462.14;1679247;85;21334;-81
2023/10/11 15:10:26;;;;;;;17.82;5.28;;;;;;;13.42;28.50;101457.63;1678587;85;21965;-82
2023/10/11 15:13:32;;;;;;;14.25;3.22;;;;;;;13.28;28.78;101461.88;1655777;86;21337;-81
2023/10/11 15:16:38;;;;;;;10.18;3.17;;;;;;;13.16;29.18;101459.03;1713142;83;21335;-81
2023/10/11 15:19:46;;;;;;;6.15;2.80;;;;;;;13.09;29.43;101459.36;1738693;82;21302;-81
2023/10/11 15:22:54;;;;;;;14.68;3.00;;;;;;;12.98;29.59;101468.21;1711428;83;21334;-81
2023/10/11 15:26:01;;;;;;;4.35;2.30;;;;;;;12.94;29.82;101461.87;1736481;82;21364;-82
2023/10/11 15:29:07;;;;;;;7.28;2.50;;;;;;;12.92;30.09;101460.64;1737970;82;21352;-81
2023/10/11 15:32:13;;;;;;;11.35;3.22;;;;;;;12.74;30.56;101464.83;1737697;82;21308;-81